Time;durP1;ratioP1;P1;durP2;ratioP2;P2;SDS_P1;SDS_P2;PMS_P1;PMS_P2;Temp;Humidity;BMP_temperature;BMP_pressure;BME280_temperature;BME280_humidity;BME280_pressure;Samples;Min_cycle;Max_cycle;Signal;HPM_P1;HPM_P2
2022/06/07 00:00:10;;;;;;;1.23;0.90;;;;;;;14.41;62.70;100088.63;5038631;28;20456;-68
2022/06/07 00:02:37;;;;;;;1.73;1.00;;;;;;;14.42;62.78;100086.75;5039089;28;20617;-66
2022/06/07 00:05:05;;;;;;;1.53;0.87;;;;;;;14.32;63.32;100087.78;5039795;28;20851;-68
2022/06/07 00:07:31;;;;;;;1.70;0.97;;;;;;;14.28;63.02;100089.13;5038762;28;20593;-67
2022/06/07 00:09:58;;;;;;;1.50;1.27;;;;;;;14.35;62.92;100093.84;5039499;28;20446;-67
2022/06/07 00:12:26;;;;;;;1.87;1.27;;;;;;;14.40;63.00;100086.09;5038800;27;20482;-68
2022/06/07 00:14:53;;;;;;;1.67;1.30;;;;;;;14.52;62.61;100089.28;5038838;28;20449;-65
2022/06/07 00:17:20;;;;;;;1.50;1.37;;;;;;;14.48;63.15;100086.09;5038524;28;20505;-65
2022/06/07 00:19:48;;;;;;;1.50;1.40;;;;;;;14.29;63.49;100082.75;5038750;28;20446;-65
2022/06/07 00:22:16;;;;;;;1.60;1.20;;;;;;;14.38;63.34;100085.44;5038486;28;20493;-66
2022/06/07 00:24:43;;;;;;;1.77;1.43;;;;;;;14.32;63.79;100086.94;5039801;28;20445;-69
2022/06/07 00:27:09;;;;;;;4.13;1.47;;;;;;;14.41;63.86;100085.06;5038817;28;21173;-69
2022/06/07 00:29:38;;;;;;;1.50;1.00;;;;;;;14.40;63.97;100072.66;5038810;28;20453;-68
2022/06/07 00:32:05;;;;;;;1.53;1.27;;;;;;;14.40;63.80;100078.84;5037977;28;20550;-69
2022/06/07 00:34:33;;;;;;;1.73;1.23;;;;;;;14.30;64.21;100075.50;5039542;28;20446;-69
2022/06/07 00:37:00;;;;;;;2.30;2.10;;;;;;;14.32;64.00;100071.66;5038147;28;20482;-67
2022/06/07 00:39:26;;;;;;;1.67;1.50;;;;;;;14.50;64.02;100076.84;5038915;28;20438;-68
2022/06/07 00:41:53;;;;;;;2.23;1.27;;;;;;;14.49;64.16;100077.88;5038837;28;21177;-69
2022/06/07 00:44:24;;;;;;;1.63;1.50;;;;;;;14.59;63.98;100072.31;5037198;28;20438;-69
2022/06/07 00:46:54;;;;;;;4.07;1.90;;;;;;;14.47;64.67;100074.47;5038154;28;20477;-68
2022/06/07 00:49:22;;;;;;;2.70;1.70;;;;;;;14.53;64.42;100066.75;5039005;28;20445;-67
2022/06/07 00:51:49;;;;;;;2.07;1.87;;;;;;;14.39;64.96;100069.13;5037852;28;20477;-66
2022/06/07 00:54:19;;;;;;;2.60;1.67;;;;;;;14.22;65.35;100056.72;5039336;28;20426;-69
2022/06/07 00:56:46;;;;;;;2.30;1.47;;;;;;;14.24;65.43;100060.91;5038272;28;20499;-68
2022/06/07 00:59:13;;;;;;;2.00;1.80;;;;;;;14.37;65.22;100064.91;5038164;28;20477;-68
2022/06/07 01:01:40;;;;;;;1.90;1.60;;;;;;;14.35;65.04;100057.00;5037807;28;20482;-67
2022/06/07 01:04:08;;;;;;;1.60;1.50;;;;;;;14.32;65.67;100050.13;5038900;28;20513;-68
2022/06/07 01:12:04;;;;;;;2.87;2.07;;;;;;;14.29;66.11;100058.53;5038069;27;20545;-69
2022/06/07 01:14:31;;;;;;;3.43;2.53;;;;;;;14.24;66.69;100055.53;5037961;28;20453;-67
2022/06/07 01:16:58;;;;;;;2.60;2.17;;;;;;;14.38;66.26;100051.31;5037758;27;20490;-68
2022/06/07 01:19:27;;;;;;;2.00;1.80;;;;;;;14.27;66.88;100049.81;5038954;28;20446;-69
2022/06/07 01:21:55;;;;;;;2.87;1.70;;;;;;;14.26;67.10;100048.13;5036712;28;20600;-66
2022/06/07 01:24:21;;;;;;;3.60;1.57;;;;;;;14.20;66.81;100047.94;5023410;28;20449;-68
2022/06/07 01:26:50;;;;;;;1.87;1.50;;;;;;;14.38;66.27;100053.16;5037953;27;20496;-67
2022/06/07 01:29:17;;;;;;;2.30;1.40;;;;;;;14.26;66.70;100045.44;5038646;28;20449;-68
2022/06/07 01:31:44;;;;;;;4.63;1.63;;;;;;;14.46;66.40;100051.28;5037812;27;20474;-67
2022/06/07 01:34:11;;;;;;;1.80;1.50;;;;;;;14.50;66.47;100047.25;5038384;28;20627;-67
2022/06/07 01:36:38;;;;;;;1.63;1.47;;;;;;;14.53;66.33;100040.69;5037724;27;20549;-68
2022/06/07 01:41:56;;;;;;;2.57;1.80;;;;;;;14.60;66.13;100035.47;5037648;27;20485;-68
2022/06/07 01:44:25;;;;;;;2.17;1.93;;;;;;;14.53;66.66;100048.78;5038459;28;20438;-69
2022/06/07 01:46:53;;;;;;;2.60;2.33;;;;;;;14.59;66.62;100037.34;5037352;28;20478;-68
2022/06/07 01:49:20;;;;;;;3.80;2.87;;;;;;;14.56;66.88;100032.25;5022159;28;20430;-68
2022/06/07 01:51:47;;;;;;;3.00;2.70;;;;;;;14.60;67.04;100038.16;5036727;28;20482;-68
2022/06/07 01:54:15;;;;;;;4.17;3.27;;;;;;;14.63;67.11;100036.00;5037746;28;20450;-68
2022/06/07 01:56:42;;;;;;;4.90;2.90;;;;;;;14.58;67.48;100040.16;5037347;27;20534;-69
2022/06/07 01:59:09;;;;;;;4.60;3.90;;;;;;;14.64;67.37;100023.38;5038172;28;20446;-68
2022/06/07 02:01:36;;;;;;;4.13;3.73;;;;;;;14.56;67.42;100026.03;5036951;28;20554;-68
2022/06/07 02:04:04;;;;;;;5.10;4.07;;;;;;;14.61;67.83;100029.94;5038168;28;20434;-68
2022/06/07 02:06:31;;;;;;;4.30;3.50;;;;;;;14.44;68.15;100025.56;5037406;27;20554;-68
2022/06/07 02:08:58;;;;;;;4.00;3.07;;;;;;;14.46;68.65;100021.72;5037526;28;20453;-68
2022/06/07 02:11:27;;;;;;;6.30;3.57;;;;;;;14.38;68.73;100019.03;5037279;28;20489;-69
2022/06/07 02:13:54;;;;;;;5.80;3.53;;;;;;;14.52;68.36;100017.47;5037244;28;20450;-69
2022/06/07 02:16:22;;;;;;;3.90;2.90;;;;;;;14.41;68.77;100007.94;5037057;27;20485;-68
2022/06/07 02:18:49;;;;;;;4.23;3.83;;;;;;;14.60;68.24;100005.88;5037784;28;20454;-70
2022/06/07 02:21:17;;;;;;;4.23;3.30;;;;;;;14.59;68.43;100012.28;5037229;27;20559;-69
2022/06/07 02:23:44;;;;;;;3.57;3.20;;;;;;;14.59;68.01;100012.28;5036816;28;20483;-69
2022/06/07 02:26:14;;;;;;;4.00;3.60;;;;;;;14.63;68.26;100013.63;5037224;27;20507;-70
2022/06/07 02:28:44;;;;;;;5.43;4.13;;;;;;;14.48;68.97;99994.63;5037794;28;20464;-68
2022/06/07 02:31:11;;;;;;;3.90;3.47;;;;;;;14.64;68.53;99996.47;5037000;28;20544;-71
2022/06/07 02:33:39;;;;;;;4.00;3.63;;;;;;;14.67;68.06;99993.44;5037326;28;20438;-70
2022/06/07 02:36:07;;;;;;;4.17;2.97;;;;;;;14.59;68.26;99996.97;5037127;27;20535;-69
2022/06/07 02:38:34;;;;;;;4.93;3.70;;;;;;;14.62;68.33;99995.81;5037268;28;20454;-69
2022/06/07 02:41:02;;;;;;;4.93;2.83;;;;;;;14.50;68.95;99996.13;5036917;28;20762;-70
2022/06/07 02:43:29;;;;;;;6.23;4.50;;;;;;;14.49;69.18;99988.22;5040667;28;20450;-69
2022/06/07 02:45:58;;;;;;;9.93;3.90;;;;;;;14.41;69.53;99985.56;5038901;28;20576;-67
2022/06/07 02:48:25;;;;;;;3.30;2.90;;;;;;;14.50;69.42;99984.53;5041354;28;20449;-69
2022/06/07 02:50:52;;;;;;;3.30;3.00;;;;;;;14.60;68.76;99979.84;5039779;28;20473;-68
2022/06/07 02:53:19;;;;;;;5.00;3.53;;;;;;;14.56;69.24;99974.94;5040536;28;20456;-68
2022/06/07 02:55:45;;;;;;;4.53;3.90;;;;;;;14.57;68.48;99972.06;5039755;27;20477;-69
2022/06/07 02:58:12;;;;;;;3.87;3.00;;;;;;;14.70;68.52;99976.91;5040727;28;20442;-68
2022/06/07 03:00:39;;;;;;;5.23;4.00;;;;;;;14.72;68.01;99976.75;5040545;27;20470;-69
2022/06/07 03:03:07;;;;;;;6.87;3.80;;;;;;;14.73;68.09;99983.81;5040339;28;20876;-67
2022/06/07 03:05:34;;;;;;;5.03;3.10;;;;;;;14.66;68.25;99975.59;5040082;27;20469;-67
2022/06/07 03:08:01;;;;;;;2.90;2.60;;;;;;;14.69;67.89;99968.03;5029062;28;20446;-68
2022/06/07 03:10:27;;;;;;;5.40;3.70;;;;;;;14.66;68.02;99968.38;5020055;28;20458;-68
2022/06/07 03:12:54;;;;;;;2.80;2.60;;;;;;;14.68;68.12;99968.19;5020296;28;20457;-69
2022/06/07 03:15:21;;;;;;;3.37;3.07;;;;;;;14.64;67.71;99970.41;5019486;28;20450;-65
2022/06/07 03:17:48;;;;;;;4.90;3.50;;;;;;;14.67;67.32;99964.66;5020428;28;20514;-67
2022/06/07 03:20:16;;;;;;;4.20;2.70;;;;;;;14.72;67.09;99972.22;5020440;28;20498;-67
2022/06/07 03:22:43;;;;;;;6.70;3.40;;;;;;;14.66;67.78;99962.97;5092067;28;20447;-68
2022/06/07 03:25:11;;;;;;;3.50;3.20;;;;;;;14.60;68.01;99966.38;5102922;28;20439;-67
2022/06/07 03:27:38;;;;;;;4.80;3.27;;;;;;;14.61;68.04;99964.53;5069565;28;20507;-68
2022/06/07 03:30:08;;;;;;;4.03;3.10;;;;;;;14.69;68.15;99961.81;5021121;28;20503;-67
2022/06/07 03:32:35;;;;;;;4.77;3.27;;;;;;;14.83;67.93;99963.75;5034598;28;20462;-67
2022/06/07 03:35:01;;;;;;;3.87;3.47;;;;;;;14.99;67.85;99957.44;5032891;28;20423;-66
2022/06/07 03:37:30;;;;;;;4.40;4.00;;;;;;;14.72;68.72;99956.09;5039220;28;20850;-66
2022/06/07 03:39:56;;;;;;;3.40;2.90;;;;;;;14.75;68.88;99958.41;5021764;28;20480;-65
2022/06/07 03:42:23;;;;;;;5.20;4.37;;;;;;;14.74;68.52;99955.88;5019887;28;20516;-67
2022/06/07 03:44:50;;;;;;;4.50;3.67;;;;;;;14.63;69.23;99963.34;5019366;28;20447;-67
2022/06/07 03:47:17;;;;;;;4.83;4.33;;;;;;;14.66;69.44;99970.22;5018841;28;20481;-66
2022/06/07 03:49:46;;;;;;;6.23;4.67;;;;;;;14.56;69.59;99959.63;5020005;28;21012;-67
2022/06/07 03:52:12;;;;;;;5.67;4.50;;;;;;;14.71;69.41;99970.53;5019088;28;20498;-66
2022/06/07 03:54:41;;;;;;;6.17;4.53;;;;;;;14.68;69.22;99970.88;5019768;28;20486;-66
2022/06/07 03:57:08;;;;;;;4.47;4.07;;;;;;;14.73;68.81;99955.06;5019095;28;20508;-67
2022/06/07 03:59:37;;;;;;;5.43;3.93;;;;;;;14.83;68.69;99962.94;5019647;28;20466;-68
2022/06/07 04:02:04;;;;;;;5.00;4.60;;;;;;;14.74;68.90;99963.97;5018281;28;20478;-66
2022/06/07 04:04:31;;;;;;;9.87;3.90;;;;;;;14.74;69.09;99964.81;5020294;28;21072;-68
2022/06/07 04:09:44;;;;;;;4.63;4.00;;;;;;;14.79;69.18;99966.97;5019989;28;20842;-68
2022/06/07 04:12:13;;;;;;;11.83;4.30;;;;;;;15.13;67.92;99969.31;5029271;28;20479;-63
2022/06/07 04:14:41;;;;;;;4.57;4.17;;;;;;;15.96;65.05;99975.81;5018247;28;20496;-63
2022/06/07 04:17:09;;;;;;;5.60;3.70;;;;;;;16.04;63.93;99972.22;5018705;28;20508;-64
2022/06/07 04:19:36;;;;;;;4.80;4.10;;;;;;;15.53;65.28;99978.16;5019411;28;20462;-64
2022/06/07 04:22:05;;;;;;;4.53;4.13;;;;;;;15.30;66.29;99970.06;5007298;28;20479;-64
2022/06/07 04:24:32;;;;;;;4.63;4.03;;;;;;;15.94;64.89;99977.84;4999924;28;20459;-64
2022/06/07 04:27:00;;;;;;;5.07;3.30;;;;;;;17.91;58.42;99971.81;4999890;28;21050;-63
2022/06/07 04:29:27;;;;;;;4.27;3.17;;;;;;;18.13;57.09;99963.66;5004539;28;20455;-64
2022/06/07 04:31:54;;;;;;;3.63;3.07;;;;;;;17.34;58.22;99962.72;5003807;28;21105;-63
2022/06/07 04:34:21;;;;;;;3.13;2.83;;;;;;;16.29;62.27;99967.41;5006277;28;20444;-63
2022/06/07 04:36:48;;;;;;;4.67;3.80;;;;;;;16.04;63.12;99956.03;4993460;28;20499;-63
2022/06/07 04:39:14;;;;;;;4.30;3.60;;;;;;;17.06;60.12;99955.34;5020245;28;20501;-63
2022/06/07 04:41:41;;;;;;;4.63;3.70;;;;;;;18.13;56.63;99961.78;5011274;28;20481;-63
2022/06/07 04:44:11;;;;;;;5.73;3.53;;;;;;;19.14;53.55;99955.03;5000418;28;20468;-64
2022/06/07 04:46:38;;;;;;;4.10;3.20;;;;;;;19.69;51.50;99953.06;5023054;28;20469;-64
2022/06/07 04:49:05;;;;;;;3.77;3.47;;;;;;;19.38;51.56;99959.06;5039468;28;20434;-64
2022/06/07 04:51:34;;;;;;;4.33;3.00;;;;;;;18.13;55.18;99959.09;5028843;28;20481;-64
2022/06/07 04:54:02;;;;;;;7.80;3.53;;;;;;;17.76;56.79;99960.19;5019115;28;20480;-63
2022/06/07 04:56:31;;;;;;;5.40;3.70;;;;;;;19.38;52.47;99957.19;5017657;28;20478;-64
2022/06/07 04:58:59;;;;;;;5.40;3.53;;;;;;;19.10;53.05;99957.31;5019178;28;20447;-64
2022/06/07 05:01:29;;;;;;;3.97;2.87;;;;;;;19.18;52.98;99959.00;5016231;28;20508;-64
2022/06/07 05:03:56;;;;;;;4.10;3.33;;;;;;;18.03;55.31;99964.00;5018829;28;20462;-63
2022/06/07 05:06:25;;;;;;;4.07;3.00;;;;;;;16.89;58.77;99964.69;5019478;28;20499;-64
2022/06/07 05:08:54;;;;;;;7.23;3.83;;;;;;;16.27;61.51;99965.94;5018739;28;20459;-63
2022/06/07 05:11:21;;;;;;;6.23;4.40;;;;;;;16.15;62.24;99963.66;5018101;28;20474;-63
2022/06/07 05:13:47;;;;;;;5.67;3.93;;;;;;;16.29;61.77;99967.41;5019262;28;20518;-63
2022/06/07 05:16:14;;;;;;;7.40;4.10;;;;;;;16.52;61.55;99963.78;5017853;28;20497;-63
2022/06/07 05:18:42;;;;;;;5.67;3.30;;;;;;;18.75;55.48;99965.50;5018140;28;20443;-65
2022/06/07 05:21:10;;;;;;;5.97;3.43;;;;;;;20.89;48.87;99960.22;5017845;28;20876;-65
2022/06/07 05:23:37;;;;;;;4.73;3.20;;;;;;;20.19;49.19;99963.53;5017358;28;20454;-66
2022/06/07 05:26:07;;;;;;;4.30;3.07;;;;;;;20.40;48.54;99954.28;5017701;28;20781;-65
2022/06/07 05:28:34;;;;;;;3.20;2.80;;;;;;;20.57;48.21;99968.25;5008742;28;20840;-65
2022/06/07 05:31:01;;;;;;;4.20;3.13;;;;;;;19.38;50.96;99965.31;4999074;28;20471;-65
2022/06/07 05:33:28;;;;;;;4.67;2.97;;;;;;;18.50;53.69;99969.72;4999237;28;20460;-65
2022/06/07 05:35:58;;;;;;;4.03;2.83;;;;;;;18.99;52.88;99958.75;4998751;28;20501;-65
2022/06/07 05:38:25;;;;;;;3.30;3.00;;;;;;;19.86;51.01;99963.53;4998218;28;20480;-65
2022/06/07 05:40:52;;;;;;;6.40;3.10;;;;;;;19.07;51.69;99956.91;4998925;28;20517;-66
2022/06/07 05:43:19;;;;;;;7.13;3.43;;;;;;;18.44;53.66;99964.06;4999127;28;20470;-65
2022/06/07 05:45:48;;;;;;;6.57;3.17;;;;;;;18.23;54.62;99959.56;4998021;28;20478;-65
2022/06/07 05:48:14;;;;;;;5.07;3.10;;;;;;;19.02;52.05;99951.25;4999218;28;20446;-65
2022/06/07 05:50:43;;;;;;;4.77;3.20;;;;;;;18.98;52.00;99954.38;4998510;28;20467;-66
2022/06/07 05:53:12;;;;;;;4.17;2.77;;;;;;;18.72;52.81;99955.06;4998677;28;20554;-65
2022/06/07 05:55:38;;;;;;;7.30;3.17;;;;;;;20.31;48.60;99967.25;4994737;28;20479;-65
2022/06/07 05:58:06;;;;;;;6.37;3.03;;;;;;;21.33;45.44;99958.53;4996703;28;20495;-65
2022/06/07 06:00:32;;;;;;;4.83;3.03;;;;;;;19.75;49.06;99959.56;4997727;28;20521;-65
2022/06/07 06:02:59;;;;;;;3.30;2.90;;;;;;;18.59;52.54;99963.97;4998771;28;20463;-66
2022/06/07 06:05:26;;;;;;;4.00;2.60;;;;;;;18.80;52.38;99962.16;4998439;28;20473;-65
2022/06/07 06:10:38;;;;;;;5.60;2.70;;;;;;;18.91;51.58;99964.34;4997103;28;20898;-65
2022/06/07 06:13:05;;;;;;;5.27;2.67;;;;;;;18.38;53.10;99956.78;4995333;28;20467;-65
2022/06/07 06:15:32;;;;;;;2.83;2.23;;;;;;;17.98;53.84;99971.88;4998175;28;20470;-65
2022/06/07 06:18:01;;;;;;;2.80;2.23;;;;;;;17.81;54.71;99964.03;5005884;28;20494;-65
2022/06/07 06:20:28;;;;;;;3.60;2.30;;;;;;;18.14;53.38;99959.91;5002320;28;20474;-65
2022/06/07 06:22:55;;;;;;;6.50;2.23;;;;;;;17.81;54.08;99961.31;5019620;28;20501;-65
2022/06/07 06:25:22;;;;;;;3.13;2.00;;;;;;;18.36;52.36;99968.81;5020445;28;20435;-65
2022/06/07 06:27:50;;;;;;;8.20;2.23;;;;;;;19.19;50.18;99961.53;5020443;28;20476;-65
2022/06/07 06:30:17;;;;;;;2.70;1.70;;;;;;;21.23;45.33;99963.59;5004402;28;20724;-65
2022/06/07 06:32:44;;;;;;;3.60;2.03;;;;;;;21.70;44.28;99957.91;5020371;28;20451;-65
2022/06/07 06:35:11;;;;;;;5.83;2.00;;;;;;;19.80;48.23;99967.91;5020896;28;20431;-65
2022/06/07 06:37:38;;;;;;;5.43;2.40;;;;;;;19.02;49.67;99954.78;5021141;28;20494;-65
2022/06/07 06:40:05;;;;;;;2.50;2.03;;;;;;;18.18;52.02;99967.44;5021955;28;20431;-65
2022/06/07 06:42:32;;;;;;;4.20;1.83;;;;;;;18.18;52.07;99966.63;5020511;28;20516;-65
2022/06/07 06:45:01;;;;;;;2.63;1.93;;;;;;;17.82;53.00;99964.84;5020812;28;20458;-65
2022/06/07 06:47:27;;;;;;;4.47;2.10;;;;;;;17.79;52.19;99960.66;5019069;28;20553;-65
2022/06/07 06:49:54;;;;;;;3.17;1.90;;;;;;;18.14;52.12;99977.00;5017907;28;20454;-65
2022/06/07 06:52:22;;;;;;;3.13;1.83;;;;;;;18.08;52.02;99976.94;5019166;28;21086;-65
2022/06/07 06:54:49;;;;;;;2.77;2.00;;;;;;;18.25;51.86;99973.75;5020618;28;20513;-65
2022/06/07 06:57:16;;;;;;;4.10;1.90;;;;;;;18.30;51.78;99970.44;5019285;28;20518;-65
2022/06/07 06:59:42;;;;;;;3.60;2.00;;;;;;;18.17;51.89;99975.75;5021111;28;20464;-65
2022/06/07 07:02:12;;;;;;;2.40;1.93;;;;;;;18.10;52.31;99975.72;5019294;28;20482;-65
2022/06/07 07:04:38;;;;;;;6.23;2.30;;;;;;;18.14;53.06;99977.00;5019925;28;20462;-65
2022/06/07 07:07:05;;;;;;;4.07;1.80;;;;;;;17.64;53.26;99979.66;5019753;28;20474;-65
2022/06/07 07:09:32;;;;;;;5.03;1.73;;;;;;;17.98;53.45;99978.09;5019525;28;20468;-66
2022/06/07 07:11:59;;;;;;;3.33;2.13;;;;;;;18.33;52.30;99988.16;5019028;28;20990;-66
2022/06/07 07:14:26;;;;;;;3.27;1.80;;;;;;;18.18;52.07;99969.34;5020173;28;20487;-65
2022/06/07 07:16:53;;;;;;;1.70;1.60;;;;;;;18.42;52.83;99981.56;5019218;28;20500;-65
2022/06/07 07:19:22;;;;;;;4.70;1.93;;;;;;;18.96;50.91;99977.28;5019518;28;20561;-65
2022/06/07 07:21:50;;;;;;;3.70;2.10;;;;;;;19.06;50.39;99983.16;5019852;28;20569;-65
2022/06/07 07:24:18;;;;;;;3.70;1.83;;;;;;;19.02;50.17;99979.19;5020088;28;20450;-65
2022/06/07 07:26:46;;;;;;;4.13;2.10;;;;;;;18.99;50.19;99980.44;5019621;28;20494;-65
2022/06/07 07:29:15;;;;;;;3.77;2.00;;;;;;;19.46;49.02;99977.88;5020058;28;20450;-65
2022/06/07 07:31:42;;;;;;;3.90;1.70;;;;;;;20.27;46.13;99974.13;5019087;28;20491;-65
2022/06/07 07:34:11;;;;;;;2.93;1.50;;;;;;;20.70;45.26;99970.13;5019745;28;20861;-65
2022/06/07 07:36:43;;;;;;;3.03;1.60;;;;;;;20.96;44.56;99976.50;5019329;28;20502;-65
2022/06/07 07:39:10;;;;;;;17.93;1.97;;;;;;;20.66;44.92;99974.31;5019356;28;20486;-66
2022/06/07 07:41:38;;;;;;;3.70;1.67;;;;;;;19.78;46.90;99980.03;5019164;28;20478;-66
2022/06/07 07:44:06;;;;;;;3.23;1.60;;;;;;;19.90;46.67;99976.47;5019680;28;20450;-65
2022/06/07 07:46:35;;;;;;;3.53;2.03;;;;;;;19.69;46.32;99977.47;5017672;28;20496;-65
2022/06/07 07:49:03;;;;;;;2.33;1.50;;;;;;;18.99;47.49;99968.75;5019073;28;20591;-65
2022/06/07 07:51:31;;;;;;;2.87;1.30;;;;;;;18.60;48.74;99971.03;5018969;28;20924;-65
2022/06/07 07:54:02;;;;;;;3.50;2.47;;;;;;;18.72;48.65;99971.31;5019030;28;20469;-65
2022/06/07 07:56:30;;;;;;;3.20;1.47;;;;;;;18.42;49.15;99974.28;5018693;28;20474;-65
2022/06/07 07:58:58;;;;;;;4.23;2.07;;;;;;;19.04;48.12;99974.38;5018786;28;20474;-66
2022/06/07 08:01:26;;;;;;;3.07;1.50;;;;;;;19.93;46.66;99977.94;5019120;28;20495;-66
2022/06/07 08:03:54;;;;;;;3.90;1.90;;;;;;;20.41;45.17;99976.84;5018853;28;20454;-65
2022/06/07 08:06:23;;;;;;;2.40;1.57;;;;;;;22.02;41.33;99971.47;5018780;28;21015;-66
2022/06/07 08:08:51;;;;;;;3.80;1.33;;;;;;;22.33;40.28;99967.84;5018747;28;20458;-66
2022/06/07 08:11:21;;;;;;;5.47;1.40;;;;;;;22.07;42.65;99961.56;5018835;28;20490;-66
2022/06/07 08:13:48;;;;;;;2.90;1.30;;;;;;;21.44;41.48;99962.47;5018952;28;20458;-65
2022/06/07 08:16:15;;;;;;;5.10;1.10;;;;;;;20.83;43.43;99975.50;5018637;28;20524;-66
2022/06/07 08:18:43;;;;;;;1.97;1.50;;;;;;;20.19;43.58;99970.81;5018516;28;20514;-66
2022/06/07 08:21:12;;;;;;;5.00;1.80;;;;;;;19.95;43.97;99965.00;5018909;28;20482;-65
2022/06/07 08:23:39;;;;;;;3.90;1.47;;;;;;;19.60;44.59;99970.59;5018700;28;20530;-65
2022/06/07 08:26:07;;;;;;;3.90;1.30;;;;;;;20.22;43.32;99976.66;5018142;28;20532;-65
2022/06/07 08:28:36;;;;;;;5.00;1.87;;;;;;;20.29;43.18;99973.94;5019107;28;20454;-65
2022/06/07 08:31:04;;;;;;;4.13;2.00;;;;;;;20.84;41.78;99966.28;5018449;28;21038;-65
2022/06/07 08:39:02;;;;;;;3.00;1.20;;;;;;;20.71;42.20;99973.66;5017900;28;20532;-65
2022/06/07 08:41:32;;;;;;;3.67;1.80;;;;;;;21.49;41.39;99969.97;5018225;28;20475;-65
2022/06/07 08:44:04;;;;;;;3.20;1.30;;;;;;;21.66;40.79;99982.00;5019105;28;20439;-65
2022/06/07 08:46:34;;;;;;;5.33;1.70;;;;;;;21.15;41.69;99975.56;5017127;28;20474;-65
2022/06/07 08:49:01;;;;;;;3.70;1.63;;;;;;;20.75;43.77;99985.78;5018377;28;21032;-66
2022/06/07 08:51:31;;;;;;;5.17;2.27;;;;;;;20.38;45.13;99988.13;5018246;28;20888;-64
2022/06/07 08:54:00;;;;;;;2.93;1.60;;;;;;;20.06;45.77;99979.81;5018327;28;20471;-65
2022/06/07 08:56:31;;;;;;;7.83;2.07;;;;;;;20.14;46.62;99985.03;5017711;28;20509;-66
2022/06/07 08:59:06;;;;;;;3.17;1.90;;;;;;;20.53;45.93;99977.84;5018418;28;20478;-65
2022/06/07 09:01:37;;;;;;;4.80;2.40;;;;;;;20.88;45.32;99983.00;5018442;28;20470;-64
2022/06/07 09:04:15;;;;;;;3.63;2.23;;;;;;;20.45;46.41;99984.38;5018055;28;20454;-64
2022/06/07 09:06:43;;;;;;;4.87;2.60;;;;;;;21.56;44.53;99973.47;5018533;28;20470;-64
2022/06/07 09:09:11;;;;;;;5.80;2.87;;;;;;;21.58;43.15;99976.84;5017938;28;20454;-64
2022/06/07 09:14:30;;;;;;;3.03;2.73;;;;;;;21.31;44.45;99962.53;5016897;28;20454;-64
2022/06/07 09:16:58;;;;;;;4.70;3.00;;;;;;;23.63;40.43;99963.09;5017049;28;20486;-65
2022/06/07 09:19:26;;;;;;;5.10;3.03;;;;;;;23.76;39.52;99957.41;5018107;28;20566;-65
2022/06/07 09:21:55;;;;;;;4.20;3.20;;;;;;;23.52;39.59;99961.97;5016729;28;20511;-65
2022/06/07 09:24:27;;;;;;;4.73;3.50;;;;;;;22.65;42.44;99968.53;5016246;28;20459;-65
2022/06/07 09:27:04;;;;;;;6.80;3.73;;;;;;;22.39;42.45;99966.94;5015855;28;20610;-65
2022/06/07 09:29:35;;;;;;;4.47;3.70;;;;;;;21.09;45.17;99964.72;5016451;28;20456;-64
2022/06/07 09:32:02;;;;;;;3.87;3.23;;;;;;;21.59;44.53;99960.25;5015661;28;20479;-65
2022/06/07 09:34:31;;;;;;;4.73;3.13;;;;;;;21.17;46.42;99965.31;5016974;28;20477;-65
2022/06/07 09:37:01;;;;;;;4.10;3.20;;;;;;;21.93;45.56;99960.03;5016866;28;20527;-65
2022/06/07 09:39:31;;;;;;;7.83;3.20;;;;;;;22.17;45.03;99953.72;5012868;28;20482;-66
2022/06/07 09:42:03;;;;;;;6.87;3.83;;;;;;;21.79;44.65;99960.13;5016789;28;20477;-65
2022/06/07 09:44:33;;;;;;;9.90;4.10;;;;;;;21.59;45.55;99973.03;5016838;28;20480;-64
2022/06/07 09:47:02;;;;;;;5.13;3.57;;;;;;;21.88;45.23;99962.59;5006761;28;20471;-65
2022/06/07 09:49:34;;;;;;;4.73;3.73;;;;;;;21.96;45.06;99962.28;5011242;28;20445;-66
2022/06/07 09:52:14;;;;;;;6.27;4.03;;;;;;;21.61;45.58;99969.06;4997328;28;20484;-65
2022/06/07 09:54:43;;;;;;;5.03;3.73;;;;;;;21.70;45.11;99966.06;4996973;28;20522;-65
2022/06/07 09:57:18;;;;;;;7.33;5.03;;;;;;;22.34;45.15;99962.19;5003167;28;20478;-65
2022/06/07 09:59:56;;;;;;;4.27;3.80;;;;;;;21.49;46.16;99953.66;5010415;28;20569;-65
2022/06/07 10:03:04;;;;;;;7.07;3.93;;;;;;;22.30;43.90;99958.22;5016113;28;20479;-65
2022/06/07 10:05:34;;;;;;;4.77;4.13;;;;;;;22.11;43.96;99954.63;5014090;28;20483;-65
2022/06/07 10:08:11;;;;;;;6.13;5.07;;;;;;;21.71;44.99;99954.94;4997003;28;20447;-65
2022/06/07 10:10:41;;;;;;;6.23;4.47;;;;;;;22.03;44.39;99946.75;5015714;28;20494;-65
2022/06/07 10:13:21;;;;;;;6.07;4.40;;;;;;;21.82;45.07;99947.97;5017417;28;20454;-65
2022/06/07 10:15:51;;;;;;;6.07;4.03;;;;;;;22.14;44.00;99948.72;5010869;28;20471;-65
2022/06/07 10:18:26;;;;;;;5.73;4.30;;;;;;;22.53;42.88;99949.41;4998020;28;20766;-65
2022/06/07 10:21:27;;;;;;;4.60;4.17;;;;;;;22.19;43.01;99948.88;5017288;28;20466;-66
2022/06/07 10:24:07;;;;;;;5.07;4.57;;;;;;;23.39;42.18;99948.56;5016611;28;20496;-66
2022/06/07 10:26:43;;;;;;;8.00;4.23;;;;;;;23.83;40.66;99941.78;5005276;28;20537;-66
2022/06/07 10:29:24;;;;;;;5.67;3.33;;;;;;;25.14;39.49;99942.47;5004906;28;20442;-66
2022/06/07 10:31:56;;;;;;;3.80;3.30;;;;;;;24.19;40.07;99934.44;4991761;28;20544;-66
2022/06/07 10:34:30;;;;;;;5.23;4.00;;;;;;;23.22;41.62;99924.66;5010352;28;20455;-66
2022/06/07 10:37:01;;;;;;;4.07;3.57;;;;;;;23.96;39.51;99926.28;5006476;28;20470;-66
2022/06/07 10:42:53;;;;;;;4.13;3.73;;;;;;;22.85;41.13;99930.16;4995764;28;20499;-66
2022/06/07 10:45:24;;;;;;;4.63;3.93;;;;;;;23.74;40.17;99921.34;4995539;28;20440;-67
2022/06/07 10:47:56;;;;;;;5.90;4.10;;;;;;;24.44;39.08;99931.47;5016012;28;20454;-67
2022/06/07 10:50:27;;;;;;;4.77;3.90;;;;;;;24.29;38.47;99936.59;4997396;28;20459;-66
2022/06/07 10:53:00;;;;;;;5.40;3.67;;;;;;;23.96;39.22;99929.81;4995506;28;20870;-67
2022/06/07 10:55:31;;;;;;;5.20;3.67;;;;;;;25.04;38.08;99929.41;4998163;28;20576;-67
2022/06/07 10:58:05;;;;;;;5.30;3.80;;;;;;;24.47;38.22;99941.06;5016187;28;20455;-68
2022/06/07 11:00:37;;;;;;;6.47;3.73;;;;;;;25.04;38.27;99940.34;5014452;28;20538;-67
2022/06/07 11:03:12;;;;;;;5.40;4.30;;;;;;;23.92;39.66;99931.34;5008306;28;20468;-67
2022/06/07 11:11:16;;;;;;;4.60;3.80;;;;;;;24.02;38.55;99928.84;5018120;28;20481;-67
2022/06/07 11:13:50;;;;;;;4.27;3.50;;;;;;;24.03;38.92;99918.78;5024771;28;20477;-68
2022/06/07 11:16:20;;;;;;;4.70;3.67;;;;;;;22.83;42.11;99917.81;5018437;28;20497;-67
2022/06/07 11:18:48;;;;;;;3.97;3.17;;;;;;;23.13;39.61;99909.69;5019688;28;20494;-65
2022/06/07 11:21:26;;;;;;;5.40;3.37;;;;;;;23.16;39.88;99911.97;5019850;28;20486;-66
2022/06/07 11:24:06;;;;;;;4.57;3.20;;;;;;;23.25;40.28;99917.91;5019297;28;20458;-67
2022/06/07 11:26:39;;;;;;;3.17;2.87;;;;;;;23.08;39.79;99921.28;5019445;28;20500;-65
2022/06/07 11:29:08;;;;;;;3.80;3.40;;;;;;;23.62;39.92;99902.22;5020544;28;20824;-67
2022/06/07 11:31:43;;;;;;;5.20;3.60;;;;;;;23.49;38.71;99910.63;5017972;28;20548;-67
2022/06/07 11:34:23;;;;;;;5.90;2.80;;;;;;;24.46;37.46;99923.03;5019478;28;20476;-66
2022/06/07 11:36:51;;;;;;;3.40;3.10;;;;;;;23.60;38.81;99907.06;4990629;28;20467;-67
2022/06/07 11:39:29;;;;;;;3.53;3.10;;;;;;;23.31;40.16;99914.25;4999153;28;20556;-67
2022/06/07 11:41:57;;;;;;;4.20;3.00;;;;;;;23.94;39.76;99912.00;5013262;28;20503;-66
2022/06/07 11:44:52;;;;;;;3.83;3.43;;;;;;;23.47;39.58;99920.91;5005271;28;20459;-67
2022/06/07 11:47:38;;;;;;;4.70;3.47;;;;;;;21.97;41.43;99907.63;5007066;28;20474;-66
2022/06/07 11:50:14;;;;;;;4.87;2.70;;;;;;;22.44;41.22;99909.91;5011340;28;20454;-67
2022/06/07 11:52:59;;;;;;;5.23;3.97;;;;;;;21.80;42.26;99921.00;5014037;28;20463;-67
2022/06/07 11:55:30;;;;;;;5.37;3.70;;;;;;;21.30;42.59;99915.47;5009230;28;20466;-66
2022/06/07 11:58:03;;;;;;;6.33;3.37;;;;;;;21.89;42.52;99927.00;5016351;28;20490;-66
2022/06/07 12:00:49;;;;;;;4.00;3.37;;;;;;;22.02;41.43;99911.59;5017015;28;20474;-67
2022/06/07 12:03:38;;;;;;;5.37;3.63;;;;;;;22.56;41.88;99920.88;5007145;28;20448;-66
2022/06/07 12:06:27;;;;;;;4.00;3.60;;;;;;;22.19;41.95;99909.94;5002246;28;20475;-67
2022/06/07 12:08:58;;;;;;;8.10;4.00;;;;;;;22.21;41.42;99913.28;4984512;28;20466;-66
2022/06/07 12:11:27;;;;;;;8.83;3.83;;;;;;;21.89;42.69;99913.38;5017944;28;20486;-67